createdAt,value
2022-12-16T00:00:38.914Z,106.88
2022-12-16T00:03:47.991Z,105.05
2022-12-16T00:06:51.156Z,98.65
2022-12-16T00:09:55.524Z,103.35
2022-12-16T00:12:58.783Z,104.28
2022-12-16T00:16:05.573Z,94.32
2022-12-16T00:19:10.403Z,91.07
2022-12-16T00:22:13.875Z,84.07
2022-12-16T00:25:17.224Z,83.03
2022-12-16T00:28:22.968Z,78.28
2022-12-16T00:31:27.392Z,81.15
2022-12-16T00:34:31.994Z,80.13
2022-12-16T00:37:35.149Z,86.82
2022-12-16T00:40:38.389Z,86.65
2022-12-16T00:43:41.547Z,91.03
2022-12-16T00:46:44.947Z,102.70
2022-12-16T00:49:49.535Z,110.75
2022-12-16T00:52:52.857Z,110.57
2022-12-16T00:56:04.267Z,113.63
2022-12-16T00:59:07.395Z,114.10
2022-12-16T01:02:12.012Z,106.70
2022-12-16T01:05:19.376Z,99.22
2022-12-16T01:08:22.836Z,91.07
2022-12-16T01:11:26.201Z,90.47
2022-12-16T01:14:29.391Z,94.45
2022-12-16T01:17:32.670Z,95.80
2022-12-16T01:20:37.984Z,93.78
2022-12-16T01:23:41.320Z,104.63
2022-12-16T01:26:44.472Z,102.00
2022-12-16T01:29:47.833Z,98.68
2022-12-16T01:32:51.176Z,101.25
2022-12-16T01:36:02.323Z,90.75
2022-12-16T01:42:12.974Z,98.20
2022-12-16T01:45:34.335Z,97.50
2022-12-16T01:48:45.111Z,99.60
2022-12-16T01:51:55.205Z,98.13
2022-12-16T01:55:03.308Z,95.13
2022-12-16T01:58:10.571Z,91.50
2022-12-16T02:01:16.002Z,99.32
2022-12-16T02:04:19.284Z,95.35
2022-12-16T02:07:23.923Z,95.90
2022-12-16T02:10:35.213Z,90.53
2022-12-16T02:13:49.426Z,92.13
2022-12-16T02:16:59.034Z,88.53
2022-12-16T02:20:40.861Z,83.90
2022-12-16T02:24:20.010Z,80.85
2022-12-16T02:27:50.733Z,86.55
2022-12-16T02:31:12.464Z,82.15
2022-12-16T02:34:23.440Z,79.00
2022-12-16T02:37:38.504Z,78.75
2022-12-16T02:40:46.955Z,77.80
2022-12-16T02:43:54.802Z,87.22
2022-12-16T02:47:00.019Z,82.53
2022-12-16T02:50:03.447Z,83.47
2022-12-16T02:53:09.731Z,77.45
2022-12-16T02:56:25.608Z,84.53
2022-12-16T02:59:36.560Z,83.20
2022-12-16T03:02:49.499Z,91.25
2022-12-16T03:05:54.450Z,83.45
2022-12-16T03:09:00.720Z,89.20
2022-12-16T03:12:07.030Z,93.78
2022-12-16T03:15:12.390Z,94.80
2022-12-16T03:18:18.065Z,91.13
2022-12-16T03:21:24.394Z,95.60
2022-12-16T03:24:28.115Z,87.90
2022-12-16T03:27:40.696Z,89.13
2022-12-16T03:30:48.865Z,89.15
2022-12-16T03:34:00.800Z,91.68
2022-12-16T03:37:07.118Z,94.22
2022-12-16T03:40:12.785Z,97.50
2022-12-16T03:43:17.295Z,93.55
2022-12-16T03:46:20.857Z,88.47
2022-12-16T03:49:26.194Z,90.60
2022-12-16T03:52:29.367Z,85.80
2022-12-16T03:55:32.677Z,87.88
2022-12-16T03:58:37.834Z,87.28
2022-12-16T04:01:41.530Z,88.47
2022-12-16T04:04:46.361Z,92.47
2022-12-16T04:07:49.749Z,88.82
2022-12-16T04:11:10.781Z,91.63
2022-12-16T04:14:31.347Z,89.90
2022-12-16T04:17:51.989Z,95.20
2022-12-16T04:21:15.302Z,105.20
2022-12-16T04:24:20.961Z,93.47
2022-12-16T04:27:27.726Z,110.70
2022-12-16T04:30:35.755Z,103.25
2022-12-16T04:33:56.739Z,108.88
2022-12-16T04:37:20.781Z,108.53
2022-12-16T04:40:56.150Z,108.43
2022-12-16T04:44:16.840Z,110.63
2022-12-16T04:47:37.897Z,104.82
2022-12-16T04:50:58.780Z,104.85
2022-12-16T04:54:21.084Z,98.03
2022-12-16T04:57:41.922Z,101.03
2022-12-16T05:01:03.751Z,99.95
2022-12-16T05:04:24.529Z,97.68
2022-12-16T05:07:44.974Z,95.65
2022-12-16T05:11:06.631Z,96.95
2022-12-16T05:14:27.134Z,99.07
2022-12-16T05:17:47.464Z,100.05
2022-12-16T05:21:07.687Z,100.10
2022-12-16T05:27:50.232Z,96.75
2022-12-16T05:31:12.166Z,93.18
2022-12-16T05:34:33.119Z,98.18
2022-12-16T05:37:53.746Z,94.68
2022-12-16T05:41:14.515Z,101.25
2022-12-16T05:44:36.396Z,100.95
2022-12-16T05:47:57.824Z,98.65
2022-12-16T05:51:19.214Z,97.00
2022-12-16T05:54:39.834Z,95.78
2022-12-16T05:58:00.305Z,98.78
2022-12-16T06:01:22.786Z,94.05
2022-12-16T06:04:43.278Z,98.68
2022-12-16T06:08:09.991Z,95.70
2022-12-16T06:11:30.446Z,91.20
2022-12-16T06:14:51.185Z,92.35
2022-12-16T06:18:13.118Z,83.80
2022-12-16T06:21:33.626Z,98.13
2022-12-16T06:24:54.128Z,88.47
2022-12-16T06:28:14.533Z,90.72
2022-12-16T06:31:35.502Z,90.80
2022-12-16T06:34:57.260Z,87.13
2022-12-16T06:38:18.055Z,92.03
2022-12-16T06:41:38.575Z,81.63
2022-12-16T06:44:58.953Z,86.93
2022-12-16T06:48:19.271Z,83.90
2022-12-16T06:51:41.162Z,88.47
2022-12-16T06:55:01.720Z,99.78
2022-12-16T06:58:22.687Z,111.63
2022-12-16T07:01:43.476Z,112.13
2022-12-16T07:05:04.127Z,88.95
2022-12-16T07:08:26.103Z,83.18
2022-12-16T07:11:46.631Z,87.45
2022-12-16T07:15:07.546Z,88.88
2022-12-16T07:18:28.165Z,83.18
2022-12-16T07:21:48.993Z,87.75
2022-12-16T07:25:10.952Z,95.80
2022-12-16T07:28:31.839Z,92.45
2022-12-16T07:31:52.555Z,88.68
2022-12-16T07:35:13.182Z,86.55
2022-12-16T07:38:33.685Z,92.00
2022-12-16T07:41:55.703Z,88.43
2022-12-16T07:45:16.530Z,84.10
2022-12-16T07:48:37.184Z,84.43
2022-12-16T07:51:57.573Z,84.82
2022-12-16T07:55:17.880Z,84.25
2022-12-16T07:58:39.967Z,88.28
2022-12-16T08:02:00.412Z,76.80
2022-12-16T08:05:21.300Z,84.47
2022-12-16T08:08:42.025Z,87.88
2022-12-16T08:12:16.919Z,81.25
2022-12-16T08:15:39.012Z,88.97
2022-12-16T08:18:59.526Z,81.07
2022-12-16T08:22:20.197Z,76.10
2022-12-16T08:25:40.852Z,78.63
2022-12-16T08:29:20.281Z,86.68
2022-12-16T08:32:43.499Z,82.45
2022-12-16T08:36:04.403Z,84.72
2022-12-16T08:39:24.726Z,82.40
2022-12-16T08:46:02.247Z,68.13
2022-12-16T08:49:24.529Z,74.43
2022-12-16T08:52:45.246Z,69.55
2022-12-16T08:56:06.006Z,70.32
2022-12-16T08:59:23.089Z,69.80
2022-12-16T09:02:43.807Z,73.35
2022-12-16T09:06:05.614Z,72.45
2022-12-16T09:09:26.427Z,75.18
2022-12-16T09:12:47.227Z,71.97
2022-12-16T09:16:07.819Z,66.38
2022-12-16T09:19:31.465Z,64.20
2022-12-16T09:22:53.413Z,64.60
2022-12-16T09:26:15.805Z,81.43
2022-12-16T09:29:40.546Z,117.03
2022-12-16T09:33:05.379Z,289.00
2022-12-16T09:36:26.687Z,185.77
2022-12-16T09:39:48.690Z,107.30
2022-12-16T09:43:12.995Z,91.88
2022-12-16T09:46:42.309Z,63.78
2022-12-16T09:50:06.866Z,66.83
2022-12-16T09:53:32.015Z,140.85
2022-12-16T09:56:55.186Z,112.72
2022-12-16T10:00:19.938Z,77.22
2022-12-16T10:03:44.867Z,56.47
2022-12-16T10:07:07.383Z,53.67
2022-12-16T10:10:37.840Z,55.47
2022-12-16T10:14:06.883Z,52.15
2022-12-16T10:17:31.670Z,49.53
2022-12-16T10:21:02.177Z,49.25
2022-12-16T10:24:35.788Z,50.53
2022-12-16T10:28:02.271Z,49.65
2022-12-16T10:31:32.650Z,55.03
2022-12-16T10:34:55.261Z,69.38
2022-12-16T10:38:16.394Z,180.50
2022-12-16T10:41:38.011Z,122.60
2022-12-16T10:45:08.487Z,57.25
2022-12-16T10:48:31.525Z,43.10
2022-12-16T10:51:51.403Z,50.75
2022-12-16T10:55:20.726Z,58.05
2022-12-16T10:58:47.384Z,43.43
2022-12-16T11:02:16.436Z,52.88
2022-12-16T11:05:50.891Z,47.55
2022-12-16T11:09:11.720Z,44.70
2022-12-16T11:12:38.256Z,45.88
2022-12-16T11:16:27.126Z,44.00
2022-12-16T11:19:48.350Z,41.40
2022-12-16T11:23:26.819Z,61.80
2022-12-16T11:26:47.474Z,44.78
2022-12-16T11:30:10.125Z,72.97
2022-12-16T11:33:40.058Z,108.68
2022-12-16T11:37:01.701Z,50.45
2022-12-16T11:40:25.127Z,43.65
2022-12-16T11:43:48.028Z,45.63
2022-12-16T11:47:14.067Z,39.35
2022-12-16T11:50:40.416Z,43.55
2022-12-16T11:54:07.396Z,45.83
2022-12-16T11:57:37.000Z,43.75
2022-12-16T12:01:08.015Z,42.15
2022-12-16T12:04:30.173Z,42.60
2022-12-16T12:07:58.487Z,44.08
2022-12-16T12:11:27.286Z,45.42
2022-12-16T12:14:57.363Z,41.78
2022-12-16T12:18:24.005Z,36.38
2022-12-16T12:21:45.957Z,38.42
2022-12-16T12:25:12.589Z,43.45
2022-12-16T12:28:43.718Z,42.33
2022-12-16T12:32:12.343Z,53.72
2022-12-16T12:35:48.623Z,38.75
2022-12-16T12:39:22.201Z,38.97
2022-12-16T12:42:54.922Z,36.72
2022-12-16T12:46:25.380Z,38.33
2022-12-16T12:49:54.413Z,37.40
2022-12-16T12:53:33.695Z,39.65
2022-12-16T12:57:06.016Z,32.70
2022-12-16T13:00:35.656Z,36.88
2022-12-16T13:04:03.470Z,35.80
2022-12-16T13:07:27.122Z,35.45
2022-12-16T13:10:54.384Z,43.53
2022-12-16T13:14:17.660Z,39.33
2022-12-16T13:17:39.490Z,39.28
2022-12-16T13:21:00.485Z,37.25
2022-12-16T13:24:39.767Z,38.85
2022-12-16T13:28:13.227Z,42.60
2022-12-16T13:31:37.899Z,43.30
2022-12-16T13:35:01.410Z,38.55
2022-12-16T13:38:37.725Z,38.22
2022-12-16T13:42:20.986Z,39.22
2022-12-16T13:45:50.978Z,35.42
2022-12-16T13:49:13.108Z,37.83
2022-12-16T13:52:35.452Z,31.65
2022-12-16T13:56:01.289Z,36.10
2022-12-16T13:59:33.517Z,39.63
2022-12-16T14:02:59.022Z,39.03
2022-12-16T14:06:22.738Z,36.78
2022-12-16T14:09:57.474Z,36.92
2022-12-16T14:13:24.385Z,43.53
2022-12-16T14:16:54.927Z,36.90
2022-12-16T14:20:20.363Z,46.90
2022-12-16T14:23:58.660Z,43.78
2022-12-16T14:27:24.718Z,40.10
2022-12-16T14:30:45.558Z,44.55
2022-12-16T14:34:12.981Z,42.75
2022-12-16T14:37:35.683Z,50.60
2022-12-16T14:40:57.544Z,60.72
2022-12-16T14:44:18.543Z,55.85
2022-12-16T14:47:40.665Z,62.25
2022-12-16T14:51:02.572Z,41.65
2022-12-16T14:54:40.822Z,40.78
2022-12-16T14:57:58.086Z,37.97
2022-12-16T15:01:24.490Z,37.88
2022-12-16T15:04:48.222Z,36.30
2022-12-16T15:08:25.254Z,39.42
2022-12-16T15:11:46.414Z,42.80
2022-12-16T15:15:07.533Z,59.38
2022-12-16T15:18:36.762Z,51.92
2022-12-16T15:21:58.109Z,57.38
2022-12-16T15:25:20.846Z,49.88
2022-12-16T15:28:44.947Z,48.10
2022-12-16T15:32:13.669Z,48.83
2022-12-16T15:35:45.520Z,54.40
2022-12-16T15:39:06.264Z,54.78
2022-12-16T15:42:39.141Z,58.60
2022-12-16T15:46:07.528Z,52.17
2022-12-16T15:49:38.098Z,47.92
2022-12-16T15:53:01.765Z,45.67
2022-12-16T15:56:25.222Z,55.75
2022-12-16T15:59:49.484Z,50.45
2022-12-16T16:03:10.489Z,49.45
2022-12-16T16:06:37.460Z,65.10
2022-12-16T16:09:58.679Z,66.05
2022-12-16T16:13:19.814Z,50.05
2022-12-16T16:16:42.558Z,49.65
2022-12-16T16:20:04.848Z,44.53
2022-12-16T16:23:27.234Z,43.25
2022-12-16T16:26:48.255Z,44.95
2022-12-16T16:30:08.902Z,39.88
2022-12-16T16:33:31.571Z,45.65
2022-12-16T16:36:52.639Z,46.58
2022-12-16T16:40:13.302Z,47.75
2022-12-16T16:43:34.514Z,46.08
2022-12-16T16:46:57.112Z,50.72
2022-12-16T16:50:19.929Z,63.40
2022-12-16T16:53:40.414Z,60.35
2022-12-16T16:57:01.217Z,62.35
2022-12-16T17:00:23.629Z,67.30
2022-12-16T17:03:44.903Z,57.47
2022-12-16T17:07:07.807Z,58.05
2022-12-16T17:10:28.548Z,62.20
2022-12-16T17:13:49.226Z,62.65
2022-12-16T17:17:10.397Z,71.63
2022-12-16T17:20:34.560Z,69.93
2022-12-16T17:24:00.243Z,74.20
2022-12-16T17:27:31.789Z,66.22
2022-12-16T17:30:55.396Z,66.53
2022-12-16T17:34:15.908Z,65.93
2022-12-16T17:37:36.713Z,85.30
2022-12-16T17:41:00.117Z,131.00
2022-12-16T17:44:20.815Z,199.50
2022-12-16T17:47:41.294Z,86.38
2022-12-16T17:51:01.732Z,99.47
2022-12-16T17:54:34.157Z,126.50
2022-12-16T17:57:56.358Z,103.90
2022-12-16T18:01:20.504Z,108.22
2022-12-16T18:04:43.590Z,108.68
2022-12-16T18:08:04.574Z,104.20
2022-12-16T18:11:25.466Z,104.97
2022-12-16T18:14:48.329Z,147.48
2022-12-16T18:18:10.667Z,125.97
2022-12-16T18:21:32.895Z,251.00
2022-12-16T18:24:55.693Z,144.23
2022-12-16T18:28:16.409Z,138.60
2022-12-16T18:31:39.787Z,144.35
2022-12-16T18:35:03.366Z,116.22
2022-12-16T18:38:24.650Z,100.97
2022-12-16T18:41:47.965Z,104.40
2022-12-16T18:45:09.088Z,113.50
2022-12-16T18:48:31.512Z,113.32
2022-12-16T18:51:52.530Z,124.85
2022-12-16T18:55:16.550Z,113.28
2022-12-16T18:58:53.062Z,165.20
2022-12-16T19:02:14.475Z,121.00
2022-12-16T19:05:32.974Z,109.00
2022-12-16T19:08:52.673Z,118.50
2022-12-16T19:12:13.340Z,97.60
2022-12-16T19:15:40.872Z,126.80
2022-12-16T19:19:04.484Z,130.10
2022-12-16T19:22:26.564Z,169.40
2022-12-16T19:25:47.473Z,119.70
2022-12-16T19:29:08.568Z,116.63
2022-12-16T19:32:30.050Z,119.07
2022-12-16T19:35:50.863Z,117.55
2022-12-16T19:39:13.426Z,110.43
2022-12-16T19:42:33.833Z,105.90
2022-12-16T19:45:56.414Z,109.50
2022-12-16T19:49:17.556Z,115.88
2022-12-16T19:52:39.388Z,117.65
2022-12-16T19:56:02.438Z,102.43
2022-12-16T19:59:23.592Z,160.20
2022-12-16T20:02:56.590Z,103.03
2022-12-16T20:06:18.897Z,121.28
2022-12-16T20:09:39.858Z,122.88
2022-12-16T20:13:03.099Z,103.40
2022-12-16T20:16:25.748Z,126.15
2022-12-16T20:19:48.235Z,125.07
2022-12-16T20:23:09.620Z,241.73
2022-12-16T20:26:30.006Z,127.82
2022-12-16T20:29:52.096Z,103.78
2022-12-16T20:33:13.265Z,95.22
2022-12-16T20:36:45.809Z,98.53
2022-12-16T20:40:06.908Z,99.68
2022-12-16T20:43:33.089Z,100.18
2022-12-16T20:46:56.263Z,88.85
2022-12-16T20:50:17.294Z,100.15
2022-12-16T20:53:53.086Z,101.90
2022-12-16T20:57:14.181Z,96.65
2022-12-16T21:00:35.466Z,100.65
2022-12-16T21:04:12.600Z,93.43
2022-12-16T21:07:33.648Z,90.85
2022-12-16T21:10:56.066Z,83.60
2022-12-16T21:14:17.379Z,97.30
2022-12-16T21:17:40.827Z,93.75
2022-12-16T21:21:02.810Z,86.15
2022-12-16T21:24:24.228Z,89.32
2022-12-16T21:27:47.886Z,87.80
2022-12-16T21:31:09.162Z,81.97
2022-12-16T21:34:29.936Z,76.47
2022-12-16T21:37:52.022Z,105.43
2022-12-16T21:41:13.087Z,103.35
2022-12-16T21:44:33.493Z,103.30
2022-12-16T21:48:08.371Z,109.50
2022-12-16T21:51:29.310Z,87.82
2022-12-16T21:54:51.383Z,84.07
2022-12-16T21:58:12.424Z,79.43
2022-12-16T22:01:32.879Z,82.20
2022-12-16T22:04:56.759Z,90.78
2022-12-16T22:08:17.994Z,112.35
2022-12-16T22:11:40.474Z,98.97
2022-12-16T22:15:03.455Z,95.50
2022-12-16T22:18:24.053Z,86.72
2022-12-16T22:21:46.180Z,88.05
2022-12-16T22:25:14.214Z,87.07
2022-12-16T22:28:36.943Z,98.97
2022-12-16T22:31:58.107Z,82.47
2022-12-16T22:35:18.961Z,101.15
2022-12-16T22:38:39.655Z,100.20
2022-12-16T22:42:00.467Z,91.88
2022-12-16T22:45:26.759Z,92.75
2022-12-16T22:48:47.762Z,94.40
2022-12-16T22:52:08.401Z,94.72
2022-12-16T22:55:30.266Z,85.72
2022-12-16T22:58:51.560Z,81.75
2022-12-16T23:02:13.871Z,85.57
2022-12-16T23:05:34.409Z,86.80
2022-12-16T23:08:55.385Z,76.35
2022-12-16T23:12:17.358Z,83.03
2022-12-16T23:15:38.251Z,83.93
2022-12-16T23:19:00.429Z,88.65
2022-12-16T23:22:20.866Z,83.63
2022-12-16T23:25:41.463Z,87.78
2022-12-16T23:29:02.529Z,79.32
2022-12-16T23:32:22.895Z,91.82
2022-12-16T23:35:44.824Z,86.55
2022-12-16T23:39:05.228Z,90.88
2022-12-16T23:42:25.525Z,82.45
2022-12-16T23:45:42.574Z,88.53
2022-12-16T23:49:03.316Z,83.38
2022-12-16T23:52:25.308Z,86.28
2022-12-16T23:55:45.817Z,84.00
2022-12-16T23:59:03.475Z,88.47
